Terminal Aerodrome Forecast
Issued by NWS

Home | Current Version | Previous Version | Text Only | Print | Product List | Glossary On
Versions: 1 2 3 4 5 6 7 8 9 10 11 12 13 14 15 16 17
000
FTUS43 KDTX 241127
TAFPTK
TAF
KPTK 241127Z 2412/2512 36005KT P6SM FEW025 SCT080 BKN250
     FM241400 33007KT P6SM SCT040 BKN080 OVC150
     FM241900 30007KT P6SM VCSH SCT040 OVC080
     FM242300 03007KT P6SM SCT040
     FM250800 30005KT P6SM SKC=

USA.gov is the U.S. government's official web portal to all federal, state and local government web resources and services.